sensor_id;sensor_type;location;lat;lon;timestamp;P1;durP1;ratioP1;P2;durP2;ratioP2
56419;SDS011;42323;52.170;7.538;2024-01-30T00:01:32;466.20;;;303.05;;
56419;SDS011;42323;52.170;7.538;2024-01-30T00:03:58;466.00;;;303.15;;
56419;SDS011;42323;52.170;7.538;2024-01-30T00:06:25;466.35;;;302.55;;
56419;SDS011;42323;52.170;7.538;2024-01-30T00:08:51;462.55;;;301.77;;
56419;SDS011;42323;52.170;7.538;2024-01-30T00:11:17;462.98;;;301.88;;
56419;SDS011;42323;52.170;7.538;2024-01-30T00:13:44;456.00;;;297.88;;
56419;SDS011;42323;52.170;7.538;2024-01-30T00:16:20;469.25;;;304.10;;
56419;SDS011;42323;52.170;7.538;2024-01-30T00:18:47;466.77;;;301.08;;
56419;SDS011;42323;52.170;7.538;2024-01-30T00:21:13;462.58;;;299.48;;
56419;SDS011;42323;52.170;7.538;2024-01-30T00:23:40;469.70;;;301.70;;
56419;SDS011;42323;52.170;7.538;2024-01-30T00:26:07;461.55;;;302.80;;
56419;SDS011;42323;52.170;7.538;2024-01-30T00:28:33;455.00;;;295.90;;
56419;SDS011;42323;52.170;7.538;2024-01-30T00:31:00;465.85;;;303.85;;
56419;SDS011;42323;52.170;7.538;2024-01-30T00:33:26;463.10;;;301.02;;
56419;SDS011;42323;52.170;7.538;2024-01-30T00:35:53;465.15;;;303.75;;
56419;SDS011;42323;52.170;7.538;2024-01-30T00:38:19;461.45;;;302.42;;
56419;SDS011;42323;52.170;7.538;2024-01-30T00:40:46;464.00;;;302.92;;
56419;SDS011;42323;52.170;7.538;2024-01-30T00:43:12;489.08;;;304.58;;
56419;SDS011;42323;52.170;7.538;2024-01-30T00:45:39;457.85;;;299.70;;
56419;SDS011;42323;52.170;7.538;2024-01-30T00:48:05;461.42;;;301.77;;
56419;SDS011;42323;52.170;7.538;2024-01-30T00:50:32;461.33;;;302.08;;
56419;SDS011;42323;52.170;7.538;2024-01-30T00:52:58;464.08;;;304.52;;
56419;SDS011;42323;52.170;7.538;2024-01-30T00:55:25;462.92;;;303.70;;
56419;SDS011;42323;52.170;7.538;2024-01-30T00:57:51;484.15;;;301.80;;
56419;SDS011;42323;52.170;7.538;2024-01-30T01:00:18;462.90;;;304.08;;
56419;SDS011;42323;52.170;7.538;2024-01-30T01:02:44;458.17;;;300.25;;
56419;SDS011;42323;52.170;7.538;2024-01-30T01:05:11;467.63;;;304.90;;
56419;SDS011;42323;52.170;7.538;2024-01-30T01:07:37;466.58;;;303.63;;
56419;SDS011;42323;52.170;7.538;2024-01-30T01:10:04;494.83;;;307.45;;
56419;SDS011;42323;52.170;7.538;2024-01-30T01:12:31;472.67;;;306.10;;
56419;SDS011;42323;52.170;7.538;2024-01-30T01:14:57;469.55;;;306.27;;
56419;SDS011;42323;52.170;7.538;2024-01-30T01:17:24;465.33;;;302.60;;
56419;SDS011;42323;52.170;7.538;2024-01-30T01:19:50;468.00;;;305.58;;
56419;SDS011;42323;52.170;7.538;2024-01-30T01:22:17;469.98;;;305.77;;
56419;SDS011;42323;52.170;7.538;2024-01-30T01:24:44;477.13;;;308.38;;
56419;SDS011;42323;52.170;7.538;2024-01-30T01:27:11;474.80;;;305.40;;
56419;SDS011;42323;52.170;7.538;2024-01-30T01:29:37;503.38;;;309.67;;
56419;SDS011;42323;52.170;7.538;2024-01-30T01:32:04;479.10;;;307.17;;
56419;SDS011;42323;52.170;7.538;2024-01-30T01:34:30;498.70;;;305.70;;
56419;SDS011;42323;52.170;7.538;2024-01-30T01:36:57;508.67;;;309.27;;
56419;SDS011;42323;52.170;7.538;2024-01-30T01:39:23;475.65;;;306.33;;
56419;SDS011;42323;52.170;7.538;2024-01-30T01:41:50;481.67;;;310.58;;
56419;SDS011;42323;52.170;7.538;2024-01-30T01:44:17;480.85;;;310.60;;
56419;SDS011;42323;52.170;7.538;2024-01-30T01:46:43;479.42;;;307.75;;
56419;SDS011;42323;52.170;7.538;2024-01-30T01:49:10;505.58;;;309.30;;
56419;SDS011;42323;52.170;7.538;2024-01-30T01:51:37;506.23;;;308.13;;
56419;SDS011;42323;52.170;7.538;2024-01-30T01:54:05;478.17;;;306.50;;
56419;SDS011;42323;52.170;7.538;2024-01-30T01:56:32;478.77;;;308.77;;
56419;SDS011;42323;52.170;7.538;2024-01-30T01:59:00;478.30;;;308.42;;
56419;SDS011;42323;52.170;7.538;2024-01-30T02:01:26;475.25;;;306.50;;
56419;SDS011;42323;52.170;7.538;2024-01-30T02:03:53;504.35;;;309.63;;
56419;SDS011;42323;52.170;7.538;2024-01-30T02:06:20;503.35;;;308.80;;
56419;SDS011;42323;52.170;7.538;2024-01-30T02:08:46;505.60;;;308.67;;
56419;SDS011;42323;52.170;7.538;2024-01-30T02:11:13;504.55;;;309.63;;
56419;SDS011;42323;52.170;7.538;2024-01-30T02:13:40;496.25;;;302.50;;
56419;SDS011;42323;52.170;7.538;2024-01-30T02:16:07;484.45;;;311.48;;
56419;SDS011;42323;52.170;7.538;2024-01-30T02:18:33;480.00;;;310.38;;
56419;SDS011;42323;52.170;7.538;2024-01-30T02:21:03;477.30;;;306.00;;
56419;SDS011;42323;52.170;7.538;2024-01-30T02:23:30;478.80;;;306.67;;
56419;SDS011;42323;52.170;7.538;2024-01-30T02:25:57;478.48;;;306.88;;
56419;SDS011;42323;52.170;7.538;2024-01-30T02:28:23;466.38;;;300.45;;
56419;SDS011;42323;52.170;7.538;2024-01-30T02:30:49;470.63;;;302.08;;
56419;SDS011;42323;52.170;7.538;2024-01-30T02:33:16;467.92;;;303.23;;
56419;SDS011;42323;52.170;7.538;2024-01-30T02:35:42;498.08;;;304.30;;
56419;SDS011;42323;52.170;7.538;2024-01-30T02:38:09;466.10;;;302.65;;
56419;SDS011;42323;52.170;7.538;2024-01-30T02:40:35;467.02;;;302.67;;
56419;SDS011;42323;52.170;7.538;2024-01-30T02:43:02;468.00;;;301.55;;
56419;SDS011;42323;52.170;7.538;2024-01-30T02:45:29;462.33;;;298.95;;
56419;SDS011;42323;52.170;7.538;2024-01-30T02:47:55;494.50;;;304.85;;
56419;SDS011;42323;52.170;7.538;2024-01-30T02:50:22;467.08;;;302.00;;
56419;SDS011;42323;52.170;7.538;2024-01-30T02:52:48;469.15;;;304.05;;
56419;SDS011;42323;52.170;7.538;2024-01-30T02:55:15;498.95;;;308.00;;
56419;SDS011;42323;52.170;7.538;2024-01-30T02:57:44;465.70;;;301.38;;
56419;SDS011;42323;52.170;7.538;2024-01-30T03:00:11;471.33;;;304.20;;
56419;SDS011;42323;52.170;7.538;2024-01-30T03:02:37;490.05;;;303.40;;
56419;SDS011;42323;52.170;7.538;2024-01-30T03:05:05;464.60;;;302.05;;
56419;SDS011;42323;52.170;7.538;2024-01-30T03:07:31;465.00;;;299.83;;
56419;SDS011;42323;52.170;7.538;2024-01-30T03:09:59;486.20;;;300.25;;
56419;SDS011;42323;52.170;7.538;2024-01-30T03:12:26;484.55;;;299.75;;
56419;SDS011;42323;52.170;7.538;2024-01-30T03:14:52;462.42;;;299.05;;
56419;SDS011;42323;52.170;7.538;2024-01-30T03:17:18;461.15;;;299.77;;
56419;SDS011;42323;52.170;7.538;2024-01-30T03:19:45;461.25;;;299.60;;
56419;SDS011;42323;52.170;7.538;2024-01-30T03:22:11;462.25;;;300.52;;
56419;SDS011;42323;52.170;7.538;2024-01-30T03:24:38;455.88;;;297.67;;
56419;SDS011;42323;52.170;7.538;2024-01-30T03:27:04;459.08;;;297.30;;
56419;SDS011;42323;52.170;7.538;2024-01-30T03:29:31;457.65;;;296.17;;
56419;SDS011;42323;52.170;7.538;2024-01-30T03:31:57;455.90;;;297.67;;
56419;SDS011;42323;52.170;7.538;2024-01-30T03:34:23;461.65;;;298.50;;
56419;SDS011;42323;52.170;7.538;2024-01-30T03:36:50;454.98;;;296.65;;
56419;SDS011;42323;52.170;7.538;2024-01-30T03:39:17;462.38;;;301.80;;
56419;SDS011;42323;52.170;7.538;2024-01-30T03:41:43;449.27;;;293.63;;
56419;SDS011;42323;52.170;7.538;2024-01-30T03:44:10;454.80;;;298.35;;
56419;SDS011;42323;52.170;7.538;2024-01-30T03:46:37;461.05;;;299.65;;
56419;SDS011;42323;52.170;7.538;2024-01-30T03:49:03;454.83;;;297.60;;
56419;SDS011;42323;52.170;7.538;2024-01-30T03:51:30;449.30;;;293.77;;
56419;SDS011;42323;52.170;7.538;2024-01-30T03:53:56;479.42;;;298.38;;
56419;SDS011;42323;52.170;7.538;2024-01-30T03:56:22;482.25;;;298.85;;
56419;SDS011;42323;52.170;7.538;2024-01-30T03:58:50;453.02;;;277.05;;
56419;SDS011;42323;52.170;7.538;2024-01-30T04:01:17;449.40;;;274.30;;
56419;SDS011;42323;52.170;7.538;2024-01-30T04:03:43;448.98;;;294.85;;
56419;SDS011;42323;52.170;7.538;2024-01-30T04:06:10;454.35;;;296.60;;
56419;SDS011;42323;52.170;7.538;2024-01-30T04:08:37;448.20;;;293.90;;
56419;SDS011;42323;52.170;7.538;2024-01-30T04:11:04;439.52;;;289.75;;
56419;SDS011;42323;52.170;7.538;2024-01-30T04:13:34;441.63;;;289.83;;
56419;SDS011;42323;52.170;7.538;2024-01-30T04:16:02;446.92;;;292.30;;
56419;SDS011;42323;52.170;7.538;2024-01-30T04:18:29;443.10;;;290.45;;
56419;SDS011;42323;52.170;7.538;2024-01-30T04:20:55;442.83;;;292.67;;
56419;SDS011;42323;52.170;7.538;2024-01-30T04:23:22;448.15;;;293.98;;
56419;SDS011;42323;52.170;7.538;2024-01-30T04:25:48;449.98;;;296.27;;
56419;SDS011;42323;52.170;7.538;2024-01-30T04:28:15;453.98;;;297.10;;
56419;SDS011;42323;52.170;7.538;2024-01-30T04:30:41;450.25;;;296.30;;
56419;SDS011;42323;52.170;7.538;2024-01-30T04:33:08;455.27;;;299.30;;
56419;SDS011;42323;52.170;7.538;2024-01-30T04:35:34;446.75;;;295.30;;
56419;SDS011;42323;52.170;7.538;2024-01-30T04:38:01;448.70;;;299.83;;
56419;SDS011;42323;52.170;7.538;2024-01-30T04:40:27;453.50;;;300.67;;
56419;SDS011;42323;52.170;7.538;2024-01-30T04:42:54;453.88;;;299.25;;
56419;SDS011;42323;52.170;7.538;2024-01-30T04:45:20;453.85;;;300.52;;
56419;SDS011;42323;52.170;7.538;2024-01-30T04:47:46;482.90;;;301.38;;
56419;SDS011;42323;52.170;7.538;2024-01-30T04:50:13;455.67;;;304.10;;
56419;SDS011;42323;52.170;7.538;2024-01-30T04:52:39;456.63;;;301.25;;
56419;SDS011;42323;52.170;7.538;2024-01-30T04:55:06;458.40;;;302.35;;
56419;SDS011;42323;52.170;7.538;2024-01-30T04:57:33;459.65;;;302.73;;
56419;SDS011;42323;52.170;7.538;2024-01-30T05:00:00;457.65;;;301.35;;
56419;SDS011;42323;52.170;7.538;2024-01-30T05:02:27;491.05;;;306.67;;
56419;SDS011;42323;52.170;7.538;2024-01-30T05:04:53;461.58;;;302.42;;
56419;SDS011;42323;52.170;7.538;2024-01-30T05:07:20;454.27;;;297.58;;
56419;SDS011;42323;52.170;7.538;2024-01-30T05:09:46;487.60;;;302.98;;
56419;SDS011;42323;52.170;7.538;2024-01-30T05:12:13;458.40;;;302.35;;
56419;SDS011;42323;52.170;7.538;2024-01-30T05:14:39;456.38;;;299.38;;
56419;SDS011;42323;52.170;7.538;2024-01-30T05:17:06;455.40;;;300.92;;
56419;SDS011;42323;52.170;7.538;2024-01-30T05:19:34;486.42;;;304.73;;
56419;SDS011;42323;52.170;7.538;2024-01-30T05:22:00;453.75;;;298.25;;
56419;SDS011;42323;52.170;7.538;2024-01-30T05:24:27;456.92;;;300.95;;
56419;SDS011;42323;52.170;7.538;2024-01-30T05:26:53;459.30;;;302.67;;
56419;SDS011;42323;52.170;7.538;2024-01-30T05:29:19;458.85;;;302.38;;
56419;SDS011;42323;52.170;7.538;2024-01-30T05:31:46;463.88;;;304.90;;
56419;SDS011;42323;52.170;7.538;2024-01-30T05:34:12;463.02;;;303.77;;
56419;SDS011;42323;52.170;7.538;2024-01-30T05:36:39;458.88;;;302.80;;
56419;SDS011;42323;52.170;7.538;2024-01-30T05:39:06;458.45;;;302.67;;
56419;SDS011;42323;52.170;7.538;2024-01-30T05:41:34;458.98;;;301.50;;
56419;SDS011;42323;52.170;7.538;2024-01-30T05:44:03;457.08;;;301.58;;
56419;SDS011;42323;52.170;7.538;2024-01-30T05:46:30;489.85;;;305.17;;
56419;SDS011;42323;52.170;7.538;2024-01-30T05:48:56;461.80;;;302.75;;
56419;SDS011;42323;52.170;7.538;2024-01-30T05:51:23;484.65;;;303.05;;
56419;SDS011;42323;52.170;7.538;2024-01-30T05:53:49;459.88;;;302.48;;
56419;SDS011;42323;52.170;7.538;2024-01-30T05:56:15;469.90;;;308.85;;
56419;SDS011;42323;52.170;7.538;2024-01-30T05:58:42;466.13;;;307.88;;
56419;SDS011;42323;52.170;7.538;2024-01-30T06:01:09;484.38;;;302.25;;
56419;SDS011;42323;52.170;7.538;2024-01-30T06:03:36;482.73;;;300.38;;
56419;SDS011;42323;52.170;7.538;2024-01-30T06:06:02;489.30;;;305.25;;
56419;SDS011;42323;52.170;7.538;2024-01-30T06:08:28;493.00;;;308.15;;
56419;SDS011;42323;52.170;7.538;2024-01-30T06:10:55;463.25;;;304.17;;
56419;SDS011;42323;52.170;7.538;2024-01-30T06:13:21;466.92;;;304.75;;
56419;SDS011;42323;52.170;7.538;2024-01-30T06:15:48;466.08;;;306.63;;
56419;SDS011;42323;52.170;7.538;2024-01-30T06:18:14;467.83;;;305.77;;
56419;SDS011;42323;52.170;7.538;2024-01-30T06:20:41;462.33;;;302.88;;
56419;SDS011;42323;52.170;7.538;2024-01-30T06:23:07;497.85;;;310.38;;
56419;SDS011;42323;52.170;7.538;2024-01-30T06:25:34;467.90;;;308.38;;
56419;SDS011;42323;52.170;7.538;2024-01-30T06:28:00;463.48;;;305.33;;
56419;SDS011;42323;52.170;7.538;2024-01-30T06:30:26;476.92;;;308.13;;
56419;SDS011;42323;52.170;7.538;2024-01-30T06:32:53;462.88;;;303.17;;
56419;SDS011;42323;52.170;7.538;2024-01-30T06:35:19;473.05;;;307.63;;
56419;SDS011;42323;52.170;7.538;2024-01-30T06:37:47;469.48;;;305.95;;
56419;SDS011;42323;52.170;7.538;2024-01-30T06:40:14;455.35;;;298.40;;
56419;SDS011;42323;52.170;7.538;2024-01-30T06:42:40;452.20;;;295.90;;
56419;SDS011;42323;52.170;7.538;2024-01-30T06:45:07;467.25;;;305.13;;
56419;SDS011;42323;52.170;7.538;2024-01-30T06:47:34;501.58;;;311.05;;
56419;SDS011;42323;52.170;7.538;2024-01-30T06:50:00;502.25;;;310.77;;
56419;SDS011;42323;52.170;7.538;2024-01-30T06:52:28;466.50;;;308.88;;
56419;SDS011;42323;52.170;7.538;2024-01-30T06:54:55;471.48;;;309.17;;
56419;SDS011;42323;52.170;7.538;2024-01-30T06:57:21;503.67;;;311.42;;
56419;SDS011;42323;52.170;7.538;2024-01-30T06:59:48;465.25;;;305.83;;
56419;SDS011;42323;52.170;7.538;2024-01-30T07:02:14;453.35;;;290.45;;
56419;SDS011;42323;52.170;7.538;2024-01-30T07:04:43;453.33;;;294.08;;
56419;SDS011;42323;52.170;7.538;2024-01-30T07:07:29;468.30;;;306.70;;
56419;SDS011;42323;52.170;7.538;2024-01-30T07:09:56;470.08;;;308.52;;
56419;SDS011;42323;52.170;7.538;2024-01-30T07:12:23;476.58;;;310.38;;
56419;SDS011;42323;52.170;7.538;2024-01-30T07:14:51;475.13;;;309.92;;
56419;SDS011;42323;52.170;7.538;2024-01-30T07:17:18;506.23;;;313.63;;
56419;SDS011;42323;52.170;7.538;2024-01-30T07:19:45;473.10;;;310.73;;
56419;SDS011;42323;52.170;7.538;2024-01-30T07:22:11;478.27;;;311.48;;
56419;SDS011;42323;52.170;7.538;2024-01-30T07:24:42;472.27;;;308.77;;
56419;SDS011;42323;52.170;7.538;2024-01-30T07:27:11;476.42;;;310.60;;
56419;SDS011;42323;52.170;7.538;2024-01-30T07:29:37;499.98;;;310.38;;
56419;SDS011;42323;52.170;7.538;2024-01-30T07:32:03;474.50;;;309.02;;
56419;SDS011;42323;52.170;7.538;2024-01-30T07:34:30;475.42;;;306.85;;
56419;SDS011;42323;52.170;7.538;2024-01-30T07:36:58;471.88;;;308.10;;
56419;SDS011;42323;52.170;7.538;2024-01-30T07:39:25;476.63;;;309.27;;
56419;SDS011;42323;52.170;7.538;2024-01-30T07:41:51;505.88;;;309.23;;
56419;SDS011;42323;52.170;7.538;2024-01-30T07:44:18;502.50;;;309.45;;
56419;SDS011;42323;52.170;7.538;2024-01-30T07:46:44;474.77;;;309.05;;
56419;SDS011;42323;52.170;7.538;2024-01-30T07:49:13;478.02;;;307.73;;
56419;SDS011;42323;52.170;7.538;2024-01-30T07:51:40;458.67;;;294.67;;
56419;SDS011;42323;52.170;7.538;2024-01-30T07:54:07;487.15;;;300.58;;
56419;SDS011;42323;52.170;7.538;2024-01-30T07:56:33;480.55;;;310.35;;
56419;SDS011;42323;52.170;7.538;2024-01-30T07:59:00;507.55;;;313.85;;
56419;SDS011;42323;52.170;7.538;2024-01-30T08:01:26;516.53;;;318.05;;
56419;SDS011;42323;52.170;7.538;2024-01-30T08:03:54;512.05;;;313.08;;
56419;SDS011;42323;52.170;7.538;2024-01-30T08:06:20;483.25;;;311.77;;
56419;SDS011;42323;52.170;7.538;2024-01-30T08:08:47;479.48;;;308.23;;
56419;SDS011;42323;52.170;7.538;2024-01-30T08:11:13;482.08;;;308.00;;
56419;SDS011;42323;52.170;7.538;2024-01-30T08:13:40;479.17;;;307.15;;
56419;SDS011;42323;52.170;7.538;2024-01-30T08:16:06;509.73;;;312.23;;
56419;SDS011;42323;52.170;7.538;2024-01-30T08:18:33;516.50;;;314.65;;
56419;SDS011;42323;52.170;7.538;2024-01-30T08:20:59;484.98;;;310.17;;
56419;SDS011;42323;52.170;7.538;2024-01-30T08:23:25;481.38;;;309.63;;
56419;SDS011;42323;52.170;7.538;2024-01-30T08:25:52;484.60;;;309.42;;
56419;SDS011;42323;52.170;7.538;2024-01-30T08:28:18;485.65;;;307.85;;
56419;SDS011;42323;52.170;7.538;2024-01-30T08:30:47;513.13;;;311.27;;
56419;SDS011;42323;52.170;7.538;2024-01-30T08:33:14;512.08;;;310.23;;
56419;SDS011;42323;52.170;7.538;2024-01-30T08:35:40;486.27;;;307.55;;
56419;SDS011;42323;52.170;7.538;2024-01-30T08:38:07;513.50;;;310.77;;
56419;SDS011;42323;52.170;7.538;2024-01-30T08:40:33;497.00;;;310.90;;
56419;SDS011;42323;52.170;7.538;2024-01-30T08:43:01;485.85;;;306.42;;
56419;SDS011;42323;52.170;7.538;2024-01-30T08:45:27;534.75;;;319.50;;
56419;SDS011;42323;52.170;7.538;2024-01-30T08:47:53;519.70;;;312.10;;
56419;SDS011;42323;52.170;7.538;2024-01-30T08:50:20;500.15;;;313.88;;
56419;SDS011;42323;52.170;7.538;2024-01-30T08:52:47;503.77;;;311.83;;
56419;SDS011;42323;52.170;7.538;2024-01-30T08:55:15;525.60;;;314.08;;
56419;SDS011;42323;52.170;7.538;2024-01-30T08:57:42;504.60;;;313.38;;
56419;SDS011;42323;52.170;7.538;2024-01-30T09:00:08;506.23;;;315.83;;
56419;SDS011;42323;52.170;7.538;2024-01-30T09:02:36;510.63;;;314.77;;
56419;SDS011;42323;52.170;7.538;2024-01-30T09:05:03;505.90;;;311.70;;
56419;SDS011;42323;52.170;7.538;2024-01-30T09:07:29;501.67;;;308.15;;
56419;SDS011;42323;52.170;7.538;2024-01-30T09:09:56;536.78;;;316.17;;
56419;SDS011;42323;52.170;7.538;2024-01-30T09:12:22;509.83;;;312.48;;
56419;SDS011;42323;52.170;7.538;2024-01-30T09:14:49;512.22;;;312.35;;
56419;SDS011;42323;52.170;7.538;2024-01-30T09:17:15;510.15;;;313.30;;
56419;SDS011;42323;52.170;7.538;2024-01-30T09:19:42;516.40;;;315.33;;
56419;SDS011;42323;52.170;7.538;2024-01-30T09:22:08;515.40;;;315.77;;
56419;SDS011;42323;52.170;7.538;2024-01-30T09:24:35;466.60;;;278.95;;
56419;SDS011;42323;52.170;7.538;2024-01-30T09:27:01;469.85;;;279.73;;
56419;SDS011;42323;52.170;7.538;2024-01-30T09:29:28;480.55;;;289.38;;
56419;SDS011;42323;52.170;7.538;2024-01-30T09:31:54;517.47;;;314.35;;
56419;SDS011;42323;52.170;7.538;2024-01-30T09:34:21;537.38;;;310.55;;
56419;SDS011;42323;52.170;7.538;2024-01-30T09:36:48;542.35;;;314.75;;
56419;SDS011;42323;52.170;7.538;2024-01-30T09:39:14;515.67;;;311.52;;
56419;SDS011;42323;52.170;7.538;2024-01-30T09:41:48;525.08;;;317.65;;
56419;SDS011;42323;52.170;7.538;2024-01-30T09:44:15;525.38;;;317.15;;
56419;SDS011;42323;52.170;7.538;2024-01-30T09:46:42;531.22;;;317.10;;
56419;SDS011;42323;52.170;7.538;2024-01-30T09:49:09;520.72;;;311.40;;
56419;SDS011;42323;52.170;7.538;2024-01-30T09:51:35;523.20;;;310.25;;
56419;SDS011;42323;52.170;7.538;2024-01-30T09:54:02;514.88;;;292.95;;
56419;SDS011;42323;52.170;7.538;2024-01-30T09:56:29;528.92;;;312.25;;
56419;SDS011;42323;52.170;7.538;2024-01-30T09:58:55;537.92;;;317.08;;
56419;SDS011;42323;52.170;7.538;2024-01-30T10:01:21;536.05;;;316.23;;
56419;SDS011;42323;52.170;7.538;2024-01-30T10:03:50;525.75;;;308.40;;
56419;SDS011;42323;52.170;7.538;2024-01-30T10:06:16;534.85;;;317.70;;
56419;SDS011;42323;52.170;7.538;2024-01-30T10:08:46;529.33;;;313.17;;
56419;SDS011;42323;52.170;7.538;2024-01-30T10:11:13;529.75;;;312.00;;
56419;SDS011;42323;52.170;7.538;2024-01-30T10:13:39;536.47;;;316.15;;
56419;SDS011;42323;52.170;7.538;2024-01-30T10:16:06;538.53;;;315.13;;
56419;SDS011;42323;52.170;7.538;2024-01-30T10:18:33;535.05;;;313.83;;
56419;SDS011;42323;52.170;7.538;2024-01-30T10:20:59;535.90;;;314.38;;
56419;SDS011;42323;52.170;7.538;2024-01-30T10:23:25;533.90;;;311.80;;
56419;SDS011;42323;52.170;7.538;2024-01-30T10:25:55;533.95;;;311.35;;
56419;SDS011;42323;52.170;7.538;2024-01-30T10:28:21;538.13;;;314.63;;
56419;SDS011;42323;52.170;7.538;2024-01-30T10:30:56;534.28;;;310.60;;
56419;SDS011;42323;52.170;7.538;2024-01-30T10:33:25;533.63;;;310.50;;
56419;SDS011;42323;52.170;7.538;2024-01-30T10:35:52;544.17;;;315.65;;
56419;SDS011;42323;52.170;7.538;2024-01-30T10:38:19;547.85;;;317.92;;
56419;SDS011;42323;52.170;7.538;2024-01-30T10:40:45;553.22;;;318.20;;
56419;SDS011;42323;52.170;7.538;2024-01-30T10:43:14;552.60;;;317.23;;
56419;SDS011;42323;52.170;7.538;2024-01-30T10:45:41;562.08;;;320.88;;
56419;SDS011;42323;52.170;7.538;2024-01-30T10:48:10;583.65;;;323.50;;
56419;SDS011;42323;52.170;7.538;2024-01-30T10:50:37;583.58;;;322.45;;
56419;SDS011;42323;52.170;7.538;2024-01-30T10:53:16;557.30;;;316.50;;
56419;SDS011;42323;52.170;7.538;2024-01-30T10:55:43;589.15;;;322.52;;
56419;SDS011;42323;52.170;7.538;2024-01-30T10:58:11;596.35;;;333.80;;
56419;SDS011;42323;52.170;7.538;2024-01-30T11:00:38;627.58;;;339.17;;
56419;SDS011;42323;52.170;7.538;2024-01-30T11:03:05;636.03;;;343.58;;
56419;SDS011;42323;52.170;7.538;2024-01-30T11:05:31;604.50;;;337.20;;
56419;SDS011;42323;52.170;7.538;2024-01-30T11:08:09;605.38;;;334.10;;
56419;SDS011;42323;52.170;7.538;2024-01-30T11:10:44;580.30;;;319.33;;
56419;SDS011;42323;52.170;7.538;2024-01-30T11:13:12;425.92;;;227.20;;
56419;SDS011;42323;52.170;7.538;2024-01-30T11:15:41;406.17;;;213.07;;
56419;SDS011;42323;52.170;7.538;2024-01-30T11:18:08;603.08;;;325.48;;
56419;SDS011;42323;52.170;7.538;2024-01-30T11:20:34;620.50;;;336.35;;
56419;SDS011;42323;52.170;7.538;2024-01-30T11:23:02;628.05;;;337.95;;
56419;SDS011;42323;52.170;7.538;2024-01-30T11:25:32;627.20;;;337.65;;
56419;SDS011;42323;52.170;7.538;2024-01-30T11:27:59;622.60;;;336.95;;
56419;SDS011;42323;52.170;7.538;2024-01-30T11:30:29;645.03;;;340.63;;
56419;SDS011;42323;52.170;7.538;2024-01-30T11:33:04;636.10;;;342.85;;
56419;SDS011;42323;52.170;7.538;2024-01-30T11:35:32;624.13;;;330.53;;
56419;SDS011;42323;52.170;7.538;2024-01-30T11:37:59;614.97;;;336.52;;
56419;SDS011;42323;52.170;7.538;2024-01-30T11:40:29;616.15;;;334.83;;
56419;SDS011;42323;52.170;7.538;2024-01-30T11:42:56;577.72;;;313.98;;
56419;SDS011;42323;52.170;7.538;2024-01-30T11:45:24;585.92;;;311.20;;
56419;SDS011;42323;52.170;7.538;2024-01-30T11:47:51;631.95;;;336.30;;
56419;SDS011;42323;52.170;7.538;2024-01-30T11:50:17;607.17;;;331.70;;
56419;SDS011;42323;52.170;7.538;2024-01-30T11:52:44;611.88;;;335.23;;
56419;SDS011;42323;52.170;7.538;2024-01-30T11:55:11;612.47;;;335.55;;
56419;SDS011;42323;52.170;7.538;2024-01-30T11:57:38;613.08;;;334.45;;
56419;SDS011;42323;52.170;7.538;2024-01-30T12:00:05;634.60;;;337.85;;
56419;SDS011;42323;52.170;7.538;2024-01-30T12:02:36;613.53;;;338.20;;
56419;SDS011;42323;52.170;7.538;2024-01-30T12:05:06;620.28;;;339.88;;
56419;SDS011;42323;52.170;7.538;2024-01-30T12:07:36;624.28;;;342.67;;
56419;SDS011;42323;52.170;7.538;2024-01-30T12:10:08;620.22;;;343.77;;
56419;SDS011;42323;52.170;7.538;2024-01-30T12:12:45;628.80;;;343.70;;
56419;SDS011;42323;52.170;7.538;2024-01-30T12:15:12;629.72;;;346.33;;
56419;SDS011;42323;52.170;7.538;2024-01-30T12:17:39;652.40;;;347.05;;
56419;SDS011;42323;52.170;7.538;2024-01-30T12:22:42;629.33;;;344.73;;
56419;SDS011;42323;52.170;7.538;2024-01-30T12:27:36;630.67;;;346.63;;
56419;SDS011;42323;52.170;7.538;2024-01-30T12:30:09;627.00;;;344.38;;
56419;SDS011;42323;52.170;7.538;2024-01-30T12:32:37;629.42;;;345.30;;
56419;SDS011;42323;52.170;7.538;2024-01-30T12:35:03;631.55;;;345.88;;
56419;SDS011;42323;52.170;7.538;2024-01-30T12:37:33;634.80;;;349.42;;
56419;SDS011;42323;52.170;7.538;2024-01-30T12:40:00;624.15;;;344.00;;
56419;SDS011;42323;52.170;7.538;2024-01-30T12:42:26;626.47;;;345.33;;
56419;SDS011;42323;52.170;7.538;2024-01-30T12:44:53;625.63;;;345.50;;
56419;SDS011;42323;52.170;7.538;2024-01-30T12:47:22;657.17;;;351.95;;
56419;SDS011;42323;52.170;7.538;2024-01-30T12:49:48;633.47;;;350.45;;
56419;SDS011;42323;52.170;7.538;2024-01-30T12:52:15;637.63;;;353.10;;
56419;SDS011;42323;52.170;7.538;2024-01-30T12:54:42;644.35;;;354.27;;
56419;SDS011;42323;52.170;7.538;2024-01-30T12:57:09;643.97;;;357.10;;
56419;SDS011;42323;52.170;7.538;2024-01-30T12:59:35;658.53;;;351.83;;
56419;SDS011;42323;52.170;7.538;2024-01-30T13:02:02;635.55;;;350.60;;
56419;SDS011;42323;52.170;7.538;2024-01-30T13:04:29;631.15;;;349.17;;
56419;SDS011;42323;52.170;7.538;2024-01-30T13:06:56;614.20;;;333.27;;
56419;SDS011;42323;52.170;7.538;2024-01-30T13:09:25;635.42;;;345.95;;
56419;SDS011;42323;52.170;7.538;2024-01-30T13:11:51;601.85;;;326.77;;
56419;SDS011;42323;52.170;7.538;2024-01-30T13:14:18;595.83;;;322.27;;
56419;SDS011;42323;52.170;7.538;2024-01-30T13:16:44;616.58;;;324.00;;
56419;SDS011;42323;52.170;7.538;2024-01-30T13:19:11;589.13;;;319.67;;
56419;SDS011;42323;52.170;7.538;2024-01-30T13:21:38;605.08;;;329.30;;
56419;SDS011;42323;52.170;7.538;2024-01-30T13:24:04;606.35;;;328.60;;
56419;SDS011;42323;52.170;7.538;2024-01-30T13:26:32;630.35;;;332.83;;
56419;SDS011;42323;52.170;7.538;2024-01-30T13:28:58;604.53;;;330.60;;
56419;SDS011;42323;52.170;7.538;2024-01-30T13:31:25;602.95;;;330.17;;
56419;SDS011;42323;52.170;7.538;2024-01-30T13:33:51;604.53;;;331.17;;
56419;SDS011;42323;52.170;7.538;2024-01-30T13:36:18;604.65;;;331.48;;
56419;SDS011;42323;52.170;7.538;2024-01-30T13:38:44;609.60;;;332.15;;
56419;SDS011;42323;52.170;7.538;2024-01-30T13:41:11;608.40;;;333.15;;
56419;SDS011;42323;52.170;7.538;2024-01-30T13:43:37;610.40;;;333.65;;
56419;SDS011;42323;52.170;7.538;2024-01-30T13:46:04;609.17;;;333.98;;
56419;SDS011;42323;52.170;7.538;2024-01-30T13:48:30;616.33;;;336.10;;
56419;SDS011;42323;52.170;7.538;2024-01-30T13:50:57;616.83;;;337.27;;
56419;SDS011;42323;52.170;7.538;2024-01-30T13:53:24;612.50;;;337.05;;
56419;SDS011;42323;52.170;7.538;2024-01-30T13:55:50;613.67;;;337.15;;
56419;SDS011;42323;52.170;7.538;2024-01-30T13:58:17;612.42;;;336.60;;
56419;SDS011;42323;52.170;7.538;2024-01-30T14:00:43;635.72;;;337.90;;